createdAt,value
2019-03-18T00:00:27.607Z,99.90
2019-03-18T00:02:57.160Z,99.90
2019-03-18T00:05:26.446Z,99.50
2019-03-18T00:07:56.145Z,99.90
2019-03-18T00:10:25.506Z,99.00
2019-03-18T00:12:55.120Z,98.90
2019-03-18T00:15:24.567Z,98.80
2019-03-18T00:17:53.843Z,99.10
2019-03-18T00:20:23.426Z,98.70
2019-03-18T00:22:53.039Z,98.80
2019-03-18T00:25:22.638Z,99.00
2019-03-18T00:27:52.256Z,98.30
2019-03-18T00:30:22.064Z,98.90
2019-03-18T00:32:51.339Z,98.80
2019-03-18T00:35:20.616Z,98.80
2019-03-18T00:37:49.877Z,98.60
2019-03-18T00:40:20.453Z,98.20
2019-03-18T00:42:49.729Z,98.40
2019-03-18T00:45:18.997Z,98.00
2019-03-18T00:47:48.612Z,98.40
2019-03-18T00:50:17.881Z,98.80
2019-03-18T00:52:47.467Z,98.80
2019-03-18T00:55:16.857Z,98.70
2019-03-18T00:57:46.301Z,99.10
2019-03-18T01:00:19.173Z,99.60
2019-03-18T01:02:49.803Z,99.00
2019-03-18T01:05:19.410Z,98.10
2019-03-18T01:07:48.753Z,98.10
2019-03-18T01:10:18.470Z,98.40
2019-03-18T01:12:48.990Z,98.20
2019-03-18T01:15:27.944Z,98.20
2019-03-18T01:17:49.246Z,98.70
2019-03-18T01:20:19.598Z,98.60
2019-03-18T01:22:49.166Z,98.80
2019-03-18T01:25:18.773Z,98.50
2019-03-18T01:27:48.095Z,98.40
2019-03-18T01:30:17.392Z,98.30
2019-03-18T01:32:46.665Z,98.70
2019-03-18T01:35:16.284Z,99.30
2019-03-18T01:37:45.891Z,99.30
2019-03-18T01:40:15.149Z,99.30
2019-03-18T01:42:44.448Z,98.80
2019-03-18T01:45:14.033Z,99.00
2019-03-18T01:47:43.305Z,99.30
2019-03-18T01:50:14.686Z,99.00
2019-03-18T01:52:44.030Z,98.60
2019-03-18T01:55:13.302Z,98.60
2019-03-18T01:57:42.846Z,97.90
2019-03-18T02:00:14.470Z,98.30
2019-03-18T02:02:44.125Z,98.80
2019-03-18T02:05:14.457Z,98.70
2019-03-18T02:07:44.045Z,98.70
2019-03-18T02:10:15.532Z,99.00
2019-03-18T02:12:45.210Z,98.80
2019-03-18T02:15:15.519Z,98.60
2019-03-18T02:17:44.813Z,98.20
2019-03-18T02:20:19.214Z,98.50
2019-03-18T02:22:48.042Z,98.80
2019-03-18T02:25:17.314Z,98.80
2019-03-18T02:27:46.852Z,98.80
2019-03-18T02:30:18.747Z,99.30
2019-03-18T02:32:48.326Z,98.70
2019-03-18T02:35:17.601Z,98.70
2019-03-18T02:37:46.897Z,98.80
2019-03-18T02:40:16.228Z,98.90
2019-03-18T02:42:45.493Z,98.60
2019-03-18T02:45:15.061Z,98.60
2019-03-18T02:47:44.639Z,98.70
2019-03-18T02:50:13.910Z,98.70
2019-03-18T02:52:43.440Z,98.60
2019-03-18T02:55:12.709Z,98.70
2019-03-18T02:57:42.262Z,98.60
2019-03-18T03:00:13.125Z,98.90
2019-03-18T03:02:42.430Z,98.50
2019-03-18T03:05:13.064Z,98.90
2019-03-18T03:07:42.393Z,98.90
2019-03-18T03:10:13.193Z,99.00
2019-03-18T03:12:42.477Z,99.00
2019-03-18T03:15:14.009Z,99.40
2019-03-18T03:17:43.731Z,99.20
2019-03-18T03:20:13.253Z,99.00
2019-03-18T03:22:42.853Z,99.30
2019-03-18T03:25:12.204Z,99.20
2019-03-18T03:27:41.768Z,99.10
2019-03-18T03:30:15.622Z,99.10
2019-03-18T03:32:45.181Z,99.10
2019-03-18T03:35:15.010Z,98.60
2019-03-18T03:37:44.331Z,98.50
2019-03-18T03:40:13.796Z,98.20
2019-03-18T03:42:43.224Z,98.60
2019-03-18T03:45:14.574Z,98.40
2019-03-18T03:47:43.902Z,99.10
2019-03-18T03:50:14.239Z,99.30
2019-03-18T03:52:43.516Z,99.00
2019-03-18T03:55:13.638Z,99.60
2019-03-18T03:57:42.912Z,99.80
2019-03-18T04:00:17.072Z,99.30
2019-03-18T04:02:46.355Z,99.20
2019-03-18T04:05:15.907Z,99.20
2019-03-18T04:07:45.281Z,99.10
2019-03-18T04:10:15.602Z,99.20
2019-03-18T04:12:44.875Z,99.00
2019-03-18T04:15:15.446Z,98.80
2019-03-18T04:17:44.822Z,99.10
2019-03-18T04:20:15.596Z,99.00
2019-03-18T04:22:44.850Z,99.70
2019-03-18T04:25:14.151Z,99.90
2019-03-18T04:27:43.509Z,99.90
2019-03-18T04:30:15.956Z,99.90
2019-03-18T04:32:45.247Z,99.90
2019-03-18T04:35:14.510Z,99.90
2019-03-18T04:37:43.844Z,99.90
2019-03-18T04:40:13.612Z,99.90
2019-03-18T04:42:42.884Z,99.90
2019-03-18T04:45:12.494Z,99.90
2019-03-18T04:47:42.112Z,99.90
2019-03-18T04:50:12.640Z,99.90
2019-03-18T04:52:42.261Z,99.90
2019-03-18T04:55:11.533Z,99.90
2019-03-18T04:57:40.829Z,99.90
2019-03-18T05:00:12.043Z,99.90
2019-03-18T05:02:41.339Z,99.90
2019-03-18T05:05:10.594Z,99.90
2019-03-18T05:07:39.887Z,99.90
2019-03-18T05:10:10.312Z,99.90
2019-03-18T05:12:39.983Z,99.90
2019-03-18T05:15:11.005Z,99.90
2019-03-18T05:17:40.273Z,99.90
2019-03-18T05:20:10.999Z,99.90
2019-03-18T05:22:40.297Z,99.90
2019-03-18T05:25:10.405Z,99.90
2019-03-18T05:27:39.689Z,99.90
2019-03-18T05:30:13.304Z,99.90
2019-03-18T05:32:42.628Z,99.90
2019-03-18T05:35:12.949Z,99.90
2019-03-18T05:37:42.234Z,99.90
2019-03-18T05:40:11.524Z,99.90
2019-03-18T05:42:41.053Z,99.90
2019-03-18T05:45:11.811Z,99.90
2019-03-18T05:47:41.401Z,99.90
2019-03-18T05:50:11.625Z,99.90
2019-03-18T05:52:40.903Z,99.90
2019-03-18T05:55:10.524Z,99.90
2019-03-18T05:57:41.166Z,99.90
2019-03-18T06:00:14.974Z,99.90
2019-03-18T06:02:46.873Z,99.90
2019-03-18T06:05:15.249Z,99.90
2019-03-18T06:07:44.772Z,99.90
2019-03-18T06:10:14.433Z,99.90
2019-03-18T06:12:43.730Z,99.90
2019-03-18T06:15:13.483Z,99.90
2019-03-18T06:17:52.242Z,99.90
2019-03-18T06:20:14.056Z,99.90
2019-03-18T06:22:43.325Z,99.90
2019-03-18T06:25:12.622Z,99.90
2019-03-18T06:27:42.320Z,99.90
2019-03-18T06:30:13.926Z,99.90
2019-03-18T06:32:43.263Z,99.90
2019-03-18T06:35:12.713Z,99.90
2019-03-18T06:37:42.258Z,99.90
2019-03-18T06:40:13.324Z,99.90
2019-03-18T06:42:42.608Z,99.90
2019-03-18T06:45:13.034Z,99.90
2019-03-18T06:47:42.319Z,99.90
2019-03-18T06:50:12.429Z,99.90
2019-03-18T06:52:41.733Z,99.90
2019-03-18T06:55:11.096Z,99.90
2019-03-18T06:57:40.365Z,99.90
2019-03-18T07:00:16.541Z,99.90
2019-03-18T07:02:46.140Z,99.90
2019-03-18T07:05:15.425Z,99.90
2019-03-18T07:07:45.048Z,99.90
2019-03-18T07:10:14.502Z,99.90
2019-03-18T07:12:43.797Z,99.90
2019-03-18T07:15:13.463Z,99.90
2019-03-18T07:17:42.761Z,99.90
2019-03-18T07:20:13.476Z,99.90
2019-03-18T07:22:43.004Z,99.90
2019-03-18T07:25:12.552Z,99.90
2019-03-18T07:27:43.139Z,99.90
2019-03-18T07:30:16.480Z,99.90
2019-03-18T07:32:45.763Z,99.90
2019-03-18T07:35:15.340Z,99.90
2019-03-18T07:37:44.618Z,99.90
2019-03-18T07:40:16.045Z,99.90
2019-03-18T07:42:45.593Z,99.90
2019-03-18T07:45:16.077Z,99.90
2019-03-18T07:47:45.973Z,99.90
2019-03-18T07:50:15.836Z,99.90
2019-03-18T07:52:45.112Z,99.90
2019-03-18T07:55:14.389Z,99.90
2019-03-18T07:57:43.662Z,99.90
2019-03-18T08:00:14.090Z,99.90
2019-03-18T08:02:43.373Z,99.90
2019-03-18T08:05:13.736Z,99.90
2019-03-18T08:07:43.028Z,99.90
2019-03-18T08:10:13.262Z,99.90
2019-03-18T08:12:43.523Z,99.90
2019-03-18T08:15:13.889Z,99.90
2019-03-18T08:17:43.496Z,99.90
2019-03-18T08:20:13.339Z,99.90
2019-03-18T08:22:42.663Z,99.90
2019-03-18T08:25:12.189Z,99.90
2019-03-18T08:27:41.457Z,99.90
2019-03-18T08:30:15.843Z,99.90
2019-03-18T08:32:45.110Z,99.90
2019-03-18T08:35:14.408Z,99.90
2019-03-18T08:37:43.700Z,99.90
2019-03-18T08:40:13.312Z,99.90
2019-03-18T08:42:42.869Z,99.90
2019-03-18T08:45:15.174Z,99.90
2019-03-18T08:47:44.467Z,99.90
2019-03-18T08:50:13.830Z,99.90
2019-03-18T08:52:43.197Z,96.30
2019-03-18T08:55:12.944Z,98.30
2019-03-18T08:57:42.248Z,99.30
2019-03-18T09:00:16.146Z,99.60
2019-03-18T09:02:45.433Z,99.90
2019-03-18T09:05:14.960Z,99.90
2019-03-18T09:07:44.498Z,99.90
2019-03-18T09:10:15.172Z,99.90
2019-03-18T09:12:44.543Z,99.90
2019-03-18T09:15:14.257Z,99.90
2019-03-18T09:17:43.559Z,99.90
2019-03-18T09:20:17.733Z,99.90
2019-03-18T09:22:47.342Z,99.90
2019-03-18T09:25:16.951Z,99.90
2019-03-18T09:27:46.229Z,99.90
2019-03-18T09:30:18.103Z,98.50
2019-03-18T09:32:48.359Z,98.50
2019-03-18T09:35:17.663Z,99.00
2019-03-18T09:37:47.019Z,99.10
2019-03-18T09:40:16.745Z,98.90
2019-03-18T09:42:46.354Z,96.40
2019-03-18T09:45:16.992Z,94.70
2019-03-18T09:47:46.793Z,94.90
2019-03-18T09:50:16.501Z,95.10
2019-03-18T09:52:45.933Z,94.30
2019-03-18T09:55:15.303Z,95.20
2019-03-18T09:57:44.919Z,94.30
2019-03-18T10:00:16.517Z,95.20
2019-03-18T10:02:45.889Z,94.10
2019-03-18T10:05:15.157Z,94.70
2019-03-18T10:07:44.508Z,94.80
2019-03-18T10:10:14.541Z,93.50
2019-03-18T10:12:44.004Z,93.60
2019-03-18T10:15:14.813Z,93.30
2019-03-18T10:17:44.445Z,94.00
2019-03-18T10:20:14.070Z,94.60
2019-03-18T10:22:43.373Z,95.20
2019-03-18T10:25:12.688Z,95.00
2019-03-18T10:27:42.253Z,93.80
2019-03-18T10:30:13.283Z,93.80
2019-03-18T10:32:42.749Z,93.90
2019-03-18T10:35:12.566Z,93.50
2019-03-18T10:37:41.860Z,93.20
2019-03-18T10:40:14.415Z,91.70
2019-03-18T10:42:43.716Z,91.90
2019-03-18T10:45:13.934Z,90.20
2019-03-18T10:47:43.523Z,88.10
2019-03-18T10:50:17.531Z,88.20
2019-03-18T10:52:46.813Z,88.80
2019-03-18T10:55:16.104Z,87.50
2019-03-18T10:57:45.463Z,89.10
2019-03-18T11:00:17.255Z,88.60
2019-03-18T11:02:47.046Z,88.10
2019-03-18T11:05:16.512Z,87.80
2019-03-18T11:07:45.804Z,86.60
2019-03-18T11:10:16.032Z,85.70
2019-03-18T11:12:45.319Z,86.50
2019-03-18T11:15:16.493Z,87.40
2019-03-18T11:17:46.012Z,86.40
2019-03-18T11:20:16.051Z,87.50
2019-03-18T11:22:45.339Z,85.90
2019-03-18T11:25:15.472Z,86.40
2019-03-18T11:27:44.745Z,85.70
2019-03-18T11:30:16.016Z,86.00
2019-03-18T11:32:45.278Z,85.50
2019-03-18T11:35:14.747Z,86.60
2019-03-18T11:37:44.289Z,86.70
2019-03-18T11:40:18.207Z,87.90
2019-03-18T11:42:48.450Z,87.10
2019-03-18T11:45:18.363Z,87.40
2019-03-18T11:47:47.742Z,86.90
2019-03-18T11:50:18.221Z,87.30
2019-03-18T11:52:47.515Z,87.80
2019-03-18T11:55:24.459Z,86.70
2019-03-18T11:57:53.905Z,86.50
2019-03-18T12:00:26.500Z,87.00
2019-03-18T12:02:55.857Z,87.60
2019-03-18T12:05:26.073Z,87.80
2019-03-18T12:07:55.365Z,87.00
2019-03-18T12:10:25.999Z,87.60
2019-03-18T12:12:55.623Z,84.60
2019-03-18T12:15:27.571Z,86.40
2019-03-18T12:17:56.857Z,85.60
2019-03-18T12:20:27.511Z,85.90
2019-03-18T12:22:57.859Z,87.70
2019-03-18T12:25:27.168Z,78.30
2019-03-18T12:27:56.734Z,81.20
2019-03-18T12:30:28.280Z,85.00
2019-03-18T12:32:57.897Z,88.10
2019-03-18T12:35:27.267Z,89.70
2019-03-18T12:37:57.203Z,90.10
2019-03-18T12:40:26.839Z,91.00
2019-03-18T12:42:56.438Z,91.10
2019-03-18T12:45:25.721Z,91.30
2019-03-18T12:47:55.036Z,90.10
2019-03-18T12:50:43.151Z,91.10
2019-03-18T12:52:57.635Z,90.10
2019-03-18T12:55:26.874Z,89.30
2019-03-18T12:57:56.445Z,90.90
2019-03-18T13:00:27.484Z,88.00
2019-03-18T13:02:57.293Z,88.70
2019-03-18T13:05:26.757Z,85.50
2019-03-18T13:07:56.192Z,85.50
2019-03-18T13:10:25.486Z,84.90
2019-03-18T13:12:54.766Z,86.00
2019-03-18T13:15:24.400Z,84.10
2019-03-18T13:17:53.691Z,83.40
2019-03-18T13:20:23.525Z,82.20
2019-03-18T13:22:54.212Z,80.90
2019-03-18T13:25:23.772Z,79.40
2019-03-18T13:27:53.357Z,81.00
2019-03-18T13:30:23.973Z,81.20
2019-03-18T13:32:53.257Z,82.80
2019-03-18T13:35:22.622Z,80.00
2019-03-18T13:37:51.903Z,81.50
2019-03-18T13:40:21.174Z,79.80
2019-03-18T13:42:50.454Z,80.90
2019-03-18T13:45:21.444Z,81.40
2019-03-18T13:47:51.153Z,82.80
2019-03-18T13:50:23.316Z,81.90
2019-03-18T13:52:52.611Z,81.70
2019-03-18T13:55:21.900Z,82.60
2019-03-18T13:57:51.233Z,86.90
2019-03-18T14:00:21.881Z,78.30
2019-03-18T14:02:51.464Z,77.80
2019-03-18T14:05:20.808Z,78.50
2019-03-18T14:07:59.582Z,78.80
2019-03-18T14:10:22.589Z,79.00
2019-03-18T14:12:52.142Z,77.90
2019-03-18T14:15:22.456Z,78.40
2019-03-18T14:17:52.388Z,77.40
2019-03-18T14:20:23.644Z,82.80
2019-03-18T14:22:52.938Z,75.10
2019-03-18T14:25:23.287Z,75.30
2019-03-18T14:27:52.561Z,76.60
2019-03-18T14:30:23.999Z,76.80
2019-03-18T14:32:53.371Z,78.70
2019-03-18T14:35:22.637Z,78.70
2019-03-18T14:37:51.924Z,78.90
2019-03-18T14:40:22.529Z,80.20
2019-03-18T14:42:52.254Z,80.90
2019-03-18T14:45:25.562Z,81.30
2019-03-18T14:47:54.868Z,81.90
2019-03-18T14:50:24.213Z,82.30
2019-03-18T14:52:53.681Z,81.20
2019-03-18T14:55:23.262Z,81.70
2019-03-18T14:57:52.604Z,81.10
2019-03-18T15:00:22.956Z,80.70
2019-03-18T15:02:52.399Z,80.60
2019-03-18T15:05:21.745Z,80.60
2019-03-18T15:07:51.026Z,79.70
2019-03-18T15:10:22.824Z,79.90
2019-03-18T15:12:52.117Z,79.00
2019-03-18T15:15:21.402Z,78.90
2019-03-18T15:17:50.692Z,78.10
2019-03-18T15:20:24.100Z,79.40
2019-03-18T15:22:53.773Z,79.10
2019-03-18T15:25:26.457Z,78.70
2019-03-18T15:27:56.060Z,78.10
2019-03-18T15:30:25.668Z,78.00
2019-03-18T15:32:54.953Z,77.70
2019-03-18T15:35:24.253Z,76.20
2019-03-18T15:37:53.541Z,76.90
2019-03-18T15:40:29.893Z,75.80
2019-03-18T15:42:59.436Z,75.20
2019-03-18T15:45:29.052Z,74.90
2019-03-18T15:47:58.654Z,73.70
2019-03-18T15:50:27.945Z,73.10
2019-03-18T15:52:57.221Z,75.00
2019-03-18T15:55:26.506Z,73.80
2019-03-18T15:57:56.060Z,75.70
2019-03-18T16:00:28.131Z,75.70
2019-03-18T16:02:57.769Z,74.50
2019-03-18T16:05:27.098Z,75.60
2019-03-18T16:07:56.374Z,76.30
2019-03-18T16:10:25.942Z,76.30
2019-03-18T16:12:55.225Z,76.70
2019-03-18T16:15:24.528Z,75.90
2019-03-18T16:17:54.159Z,74.90
2019-03-18T16:20:27.470Z,75.70
2019-03-18T16:22:56.745Z,75.30
2019-03-18T16:25:26.045Z,75.40
2019-03-18T16:27:55.658Z,76.30
2019-03-18T16:30:24.949Z,75.70
2019-03-18T16:32:54.235Z,74.30
2019-03-18T16:35:23.513Z,74.10
2019-03-18T16:37:53.140Z,73.80
2019-03-18T16:40:23.383Z,73.10
2019-03-18T16:42:52.672Z,72.60
2019-03-18T16:45:22.021Z,72.80
2019-03-18T16:47:52.733Z,72.70
2019-03-18T16:50:26.732Z,72.70
2019-03-18T16:52:56.352Z,72.40
2019-03-18T16:55:25.953Z,72.00
2019-03-18T16:57:55.568Z,71.70
2019-03-18T17:00:25.887Z,72.60
2019-03-18T17:02:55.157Z,72.00
2019-03-18T17:05:24.457Z,72.60
2019-03-18T17:07:54.316Z,72.20
2019-03-18T17:10:24.028Z,72.70
2019-03-18T17:12:53.329Z,73.10
2019-03-18T17:15:23.695Z,73.70
2019-03-18T17:17:52.971Z,73.50
2019-03-18T17:20:22.560Z,73.70
2019-03-18T17:22:51.855Z,73.40
2019-03-18T17:25:24.310Z,72.60
2019-03-18T17:27:53.775Z,72.70
2019-03-18T17:30:26.314Z,73.90
2019-03-18T17:32:54.313Z,74.70
2019-03-18T17:35:23.605Z,73.40
2019-03-18T17:37:52.884Z,74.00
2019-03-18T17:40:22.192Z,75.00
2019-03-18T17:42:51.493Z,75.70
2019-03-18T17:45:20.801Z,76.70
2019-03-18T17:47:50.079Z,77.30
2019-03-18T17:50:29.865Z,77.60
2019-03-18T17:53:03.995Z,78.10
2019-03-18T17:55:30.793Z,78.30
2019-03-18T17:58:00.322Z,78.10
2019-03-18T18:00:32.616Z,78.40
2019-03-18T18:03:02.480Z,78.80
2019-03-18T18:05:32.092Z,78.60
2019-03-18T18:08:01.725Z,79.10
2019-03-18T18:10:30.997Z,79.80
2019-03-18T18:13:00.291Z,79.00
2019-03-18T18:15:29.580Z,79.10
2019-03-18T18:17:59.212Z,79.30
2019-03-18T18:20:28.499Z,79.60
2019-03-18T18:22:57.795Z,80.00
2019-03-18T18:25:27.067Z,79.70
2019-03-18T18:27:56.364Z,79.90
2019-03-18T18:30:25.920Z,81.00
2019-03-18T18:32:55.205Z,81.40
2019-03-18T18:35:24.476Z,81.60
2019-03-18T18:37:54.035Z,81.40
2019-03-18T18:40:32.264Z,82.00
2019-03-18T18:43:01.849Z,82.40
2019-03-18T18:45:31.445Z,82.80
2019-03-18T18:48:00.744Z,82.80
2019-03-18T18:50:30.006Z,82.80
2019-03-18T18:52:59.558Z,83.00
2019-03-18T18:55:28.846Z,83.80
2019-03-18T18:57:58.572Z,84.30
2019-03-18T19:00:27.844Z,83.80
2019-03-18T19:02:57.366Z,83.80
2019-03-18T19:05:27.011Z,83.80
2019-03-18T19:07:57.709Z,84.00
2019-03-18T19:10:27.428Z,84.70
2019-03-18T19:12:56.705Z,85.90
2019-03-18T19:15:31.152Z,87.10
2019-03-18T19:18:00.452Z,87.20
2019-03-18T19:20:29.719Z,87.20
2019-03-18T19:22:59.012Z,86.80
2019-03-18T19:25:28.298Z,86.50
2019-03-18T19:27:57.853Z,86.90
2019-03-18T19:30:27.125Z,87.20
2019-03-18T19:32:56.684Z,86.80
2019-03-18T19:35:28.620Z,87.60
2019-03-18T19:37:57.098Z,88.00
2019-03-18T19:40:26.351Z,88.20
2019-03-18T19:42:55.643Z,88.20
2019-03-18T19:45:26.653Z,88.20
2019-03-18T19:47:55.936Z,88.20
2019-03-18T19:50:26.613Z,88.10
2019-03-18T19:52:55.929Z,88.20
2019-03-18T19:55:25.197Z,88.40
2019-03-18T19:57:54.803Z,88.40
2019-03-18T20:00:25.238Z,88.70
2019-03-18T20:02:54.621Z,89.00
2019-03-18T20:05:24.757Z,89.30
2019-03-18T20:07:54.036Z,89.10
2019-03-18T20:10:23.506Z,89.20
2019-03-18T20:12:52.765Z,88.80
2019-03-18T20:15:22.132Z,88.90
2019-03-18T20:17:51.411Z,89.30
2019-03-18T20:20:21.909Z,89.00
2019-03-18T20:22:51.491Z,89.10
2019-03-18T20:25:20.788Z,89.80
2019-03-18T20:27:50.072Z,89.90
2019-03-18T20:30:20.388Z,90.40
2019-03-18T20:32:49.678Z,90.20
2019-03-18T20:35:21.290Z,90.20
2019-03-18T20:37:52.132Z,90.40
2019-03-18T20:40:23.034Z,90.10
2019-03-18T20:42:52.328Z,90.20
2019-03-18T20:45:23.881Z,90.10
2019-03-18T20:47:53.155Z,90.40
2019-03-18T20:50:23.391Z,90.10
2019-03-18T20:52:52.685Z,90.00
2019-03-18T20:55:22.936Z,90.20
2019-03-18T20:57:52.216Z,90.00
2019-03-18T21:00:22.279Z,90.30
2019-03-18T21:02:51.553Z,90.30
2019-03-18T21:05:20.826Z,90.00
2019-03-18T21:07:50.383Z,89.70
2019-03-18T21:10:20.953Z,89.30
2019-03-18T21:12:50.300Z,89.50
2019-03-18T21:15:19.910Z,90.10
2019-03-18T21:17:49.178Z,89.90
2019-03-18T21:20:20.776Z,90.00
2019-03-18T21:22:50.059Z,90.10
2019-03-18T21:25:19.333Z,89.80
2019-03-18T21:27:48.622Z,89.70
2019-03-18T21:30:21.597Z,89.90
2019-03-18T21:32:52.141Z,90.20
2019-03-18T21:35:21.554Z,90.70
2019-03-18T21:37:50.824Z,91.00
2019-03-18T21:40:20.845Z,90.70
2019-03-18T21:42:50.117Z,91.00
2019-03-18T21:45:23.559Z,91.00
2019-03-18T21:47:52.839Z,90.90
2019-03-18T21:50:23.241Z,90.60
2019-03-18T21:52:52.501Z,91.00
2019-03-18T21:55:21.778Z,90.90
2019-03-18T21:57:51.355Z,91.00
2019-03-18T22:00:23.639Z,91.20
2019-03-18T22:02:53.003Z,90.90
2019-03-18T22:05:22.283Z,90.60
2019-03-18T22:07:51.643Z,90.90
2019-03-18T22:10:21.294Z,91.20
2019-03-18T22:12:50.566Z,90.90
2019-03-18T22:15:19.870Z,91.20
2019-03-18T22:17:49.131Z,91.20
2019-03-18T22:20:20.325Z,90.90
2019-03-18T22:22:49.599Z,90.70
2019-03-18T22:25:18.895Z,90.90
2019-03-18T22:27:48.485Z,90.90
2019-03-18T22:30:18.597Z,91.10
2019-03-18T22:32:48.049Z,91.20
2019-03-18T22:35:17.831Z,91.20
2019-03-18T22:37:47.101Z,91.30
2019-03-18T22:40:17.309Z,91.10
2019-03-18T22:42:46.852Z,91.50
2019-03-18T22:45:16.876Z,91.60
2019-03-18T22:47:46.219Z,91.70
2019-03-18T22:50:17.244Z,91.70
2019-03-18T22:52:46.541Z,91.70
2019-03-18T22:55:16.077Z,91.80
2019-03-18T22:57:45.350Z,92.00
2019-03-18T23:00:25.901Z,91.80
2019-03-18T23:02:56.349Z,92.00
2019-03-18T23:05:25.630Z,92.20
2019-03-18T23:07:55.231Z,92.50
2019-03-18T23:10:24.827Z,91.90
2019-03-18T23:12:54.160Z,91.80
2019-03-18T23:15:23.858Z,92.00
2019-03-18T23:17:53.366Z,92.20
2019-03-18T23:20:22.701Z,92.20
2019-03-18T23:22:51.989Z,92.50
2019-03-18T23:25:21.245Z,92.70
2019-03-18T23:27:50.754Z,92.20
2019-03-18T23:30:20.032Z,92.10
2019-03-18T23:32:49.324Z,92.30
2019-03-18T23:35:18.590Z,92.50
2019-03-18T23:37:47.871Z,92.70
2019-03-18T23:40:17.131Z,92.50
2019-03-18T23:42:46.424Z,92.90
2019-03-18T23:45:16.074Z,92.80
2019-03-18T23:47:45.665Z,92.70
2019-03-18T23:50:15.975Z,92.80
2019-03-18T23:52:45.264Z,93.20
2019-03-18T23:55:19.372Z,92.90
2019-03-18T23:57:46.713Z,92.80
